createdAt,value
2019-05-14T00:01:51.423Z,56.47
2019-05-14T00:04:22.384Z,55.96
2019-05-14T00:06:53.268Z,55.23
2019-05-14T00:09:24.047Z,55.62
2019-05-14T00:11:54.846Z,56.14
2019-05-14T00:14:36.520Z,56.31
2019-05-14T00:16:58.188Z,56.27
2019-05-14T00:19:28.964Z,56.15
2019-05-14T00:22:01.936Z,56.19
2019-05-14T00:24:32.509Z,55.61
2019-05-14T00:27:03.160Z,55.67
2019-05-14T00:29:34.165Z,55.84
2019-05-14T00:32:05.093Z,55.00
2019-05-14T00:34:35.944Z,55.39
2019-05-14T00:37:06.618Z,56.58
2019-05-14T00:39:38.489Z,57.77
2019-05-14T00:42:09.264Z,57.90
2019-05-14T00:44:51.602Z,57.84
2019-05-14T00:47:12.524Z,56.23
2019-05-14T00:49:43.193Z,56.98
2019-05-14T00:52:14.108Z,57.21
2019-05-14T00:54:44.693Z,56.36
2019-05-14T00:57:15.500Z,57.59
2019-05-14T00:59:46.173Z,57.03
2019-05-14T01:02:16.979Z,55.86
2019-05-14T01:04:47.964Z,55.18
2019-05-14T01:07:21.012Z,56.13
2019-05-14T01:09:52.529Z,55.64
2019-05-14T01:12:23.345Z,56.41
2019-05-14T01:15:07.208Z,57.02
2019-05-14T01:17:27.690Z,57.55
2019-05-14T01:19:58.627Z,56.83
2019-05-14T01:22:31.601Z,56.55
2019-05-14T01:25:01.940Z,56.65
2019-05-14T01:27:32.763Z,56.60
2019-05-14T01:30:03.746Z,57.26
2019-05-14T01:32:35.711Z,57.82
2019-05-14T01:35:06.606Z,58.55
2019-05-14T01:37:37.409Z,57.23
2019-05-14T01:40:11.207Z,57.02
2019-05-14T01:42:41.852Z,58.00
2019-05-14T01:45:24.226Z,59.07
2019-05-14T01:47:46.220Z,60.16
2019-05-14T01:50:17.262Z,61.01
2019-05-14T01:52:47.955Z,61.03
2019-05-14T01:55:18.631Z,61.13
2019-05-14T01:57:51.580Z,62.01
2019-05-14T02:00:22.278Z,62.09
2019-05-14T02:02:52.975Z,60.87
2019-05-14T02:05:23.815Z,59.87
2019-05-14T02:07:54.618Z,59.03
2019-05-14T02:10:25.997Z,59.00
2019-05-14T02:12:56.840Z,60.13
2019-05-14T02:15:37.166Z,58.86
2019-05-14T02:18:02.216Z,59.17
2019-05-14T02:20:32.676Z,59.32
2019-05-14T02:23:03.359Z,58.86
2019-05-14T02:25:34.268Z,59.25
2019-05-14T02:28:05.020Z,59.19
2019-05-14T02:30:48.424Z,59.83
2019-05-14T02:33:09.233Z,59.67
2019-05-14T02:35:40.225Z,59.67
2019-05-14T02:38:10.927Z,60.65
2019-05-14T02:40:41.829Z,60.03
2019-05-14T02:43:13.010Z,59.64
2019-05-14T02:46:00.616Z,59.48
2019-05-14T02:48:19.869Z,59.85
2019-05-14T02:50:49.680Z,59.66
2019-05-14T02:53:20.792Z,58.38
2019-05-14T02:55:51.581Z,58.66
2019-05-14T02:58:22.353Z,57.01
2019-05-14T03:00:53.230Z,58.48
2019-05-14T03:03:25.224Z,58.81
2019-05-14T03:05:56.189Z,59.16
2019-05-14T03:08:30.116Z,59.26
2019-05-14T03:11:00.408Z,58.95
2019-05-14T03:13:31.540Z,59.72
2019-05-14T03:16:20.670Z,58.36
2019-05-14T03:18:35.678Z,57.12
2019-05-14T03:21:09.294Z,57.55
2019-05-14T03:23:39.575Z,57.37
2019-05-14T03:26:10.560Z,55.17
2019-05-14T03:28:41.619Z,56.25
2019-05-14T03:31:13.397Z,55.93
2019-05-14T03:33:45.028Z,55.13
2019-05-14T03:36:20.008Z,55.79
2019-05-14T03:38:50.228Z,55.73
2019-05-14T03:41:21.198Z,53.65
2019-05-14T03:43:52.238Z,54.51
2019-05-14T03:46:43.663Z,52.23
2019-05-14T03:48:55.788Z,56.57
2019-05-14T03:51:29.602Z,56.14
2019-05-14T03:54:05.919Z,54.34
2019-05-14T03:56:31.960Z,54.79
2019-05-14T03:59:03.017Z,53.71
2019-05-14T04:01:33.979Z,53.84
2019-05-14T04:04:05.066Z,54.38
2019-05-14T04:06:40.093Z,54.22
2019-05-14T04:09:09.824Z,55.30
2019-05-14T04:11:43.035Z,56.32
2019-05-14T04:14:20.042Z,56.75
2019-05-14T04:17:05.401Z,57.11
2019-05-14T04:19:29.509Z,57.39
2019-05-14T04:22:00.497Z,58.00
2019-05-14T04:24:36.905Z,58.22
2019-05-14T04:27:12.724Z,58.88
2019-05-14T04:29:42.198Z,58.07
2019-05-14T04:32:14.363Z,58.51
2019-05-14T04:34:45.454Z,59.46
2019-05-14T04:37:19.795Z,59.77
2019-05-14T04:39:50.576Z,60.47
2019-05-14T04:42:21.467Z,60.02
2019-05-14T04:44:52.480Z,60.51
2019-05-14T04:47:32.220Z,60.98
2019-05-14T04:49:58.940Z,61.30
2019-05-14T04:52:29.314Z,60.97
2019-05-14T04:55:00.305Z,60.81
2019-05-14T04:57:31.186Z,60.77
2019-05-14T05:00:02.147Z,61.21
2019-05-14T05:02:34.078Z,60.40
2019-05-14T05:05:04.970Z,60.74
2019-05-14T05:07:35.917Z,60.87
2019-05-14T05:10:09.767Z,61.18
2019-05-14T05:12:39.428Z,60.70
2019-05-14T05:15:10.497Z,59.98
2019-05-14T05:17:48.246Z,60.46
2019-05-14T05:20:13.973Z,59.68
2019-05-14T05:22:48.590Z,59.01
2019-05-14T05:25:19.013Z,59.71
2019-05-14T05:27:49.455Z,58.79
2019-05-14T05:30:19.969Z,57.81
2019-05-14T05:32:50.434Z,55.19
2019-05-14T05:35:21.368Z,54.52
2019-05-14T05:37:52.252Z,53.00
2019-05-14T05:40:23.121Z,53.26
2019-05-14T05:42:53.857Z,53.92
2019-05-14T05:45:24.633Z,52.40
2019-05-14T05:48:00.995Z,51.85
2019-05-14T05:50:28.951Z,52.39
2019-05-14T05:52:59.835Z,51.72
2019-05-14T05:55:31.592Z,51.05
2019-05-14T05:58:02.292Z,50.75
2019-05-14T06:00:35.608Z,50.80
2019-05-14T06:03:10.265Z,50.30
2019-05-14T06:05:39.189Z,51.25
2019-05-14T06:08:10.325Z,50.88
2019-05-14T06:10:41.265Z,50.07
2019-05-14T06:13:14.034Z,48.74
2019-05-14T06:15:48.701Z,48.41
2019-05-14T06:18:21.735Z,48.09
2019-05-14T06:20:49.891Z,47.59
2019-05-14T06:23:20.676Z,47.93
2019-05-14T06:25:51.358Z,47.37
2019-05-14T06:28:22.225Z,46.86
2019-05-14T06:30:53.166Z,46.92
2019-05-14T06:33:24.048Z,46.12
2019-05-14T06:35:54.878Z,45.34
2019-05-14T06:38:25.571Z,46.08
2019-05-14T06:40:59.083Z,46.07
2019-05-14T06:43:29.042Z,45.65
2019-05-14T06:46:00.138Z,46.33
2019-05-14T06:48:34.647Z,45.87
2019-05-14T06:51:03.279Z,45.08
2019-05-14T06:53:35.782Z,46.11
2019-05-14T06:56:08.178Z,44.83
2019-05-14T06:58:39.218Z,44.35
2019-05-14T07:01:11.082Z,44.43
2019-05-14T07:03:41.795Z,44.62
2019-05-14T07:06:12.669Z,44.42
2019-05-14T07:08:43.495Z,44.79
2019-05-14T07:11:14.567Z,44.08
2019-05-14T07:13:45.273Z,44.40
2019-05-14T07:19:38.990Z,45.11
2019-05-14T07:22:09.726Z,43.77
2019-05-14T07:24:40.821Z,42.99
2019-05-14T07:27:11.891Z,42.67
2019-05-14T07:29:43.648Z,43.48
2019-05-14T07:32:14.492Z,42.62
2019-05-14T07:34:45.181Z,42.85
2019-05-14T07:37:18.118Z,42.27
2019-05-14T07:39:48.920Z,43.29
2019-05-14T07:42:19.909Z,42.70
2019-05-14T07:44:50.673Z,42.56
2019-05-14T07:47:21.581Z,42.32
2019-05-14T07:49:52.490Z,42.64
2019-05-14T07:52:24.140Z,40.14
2019-05-14T07:54:54.942Z,39.64
2019-05-14T07:57:28.309Z,40.87
2019-05-14T07:59:58.879Z,40.64
2019-05-14T08:02:30.685Z,40.95
2019-05-14T08:05:01.593Z,40.10
2019-05-14T08:07:32.544Z,36.29
2019-05-14T08:10:03.446Z,32.00
2019-05-14T08:12:34.726Z,32.87
2019-05-14T08:15:15.289Z,31.57
2019-05-14T08:17:38.876Z,33.14
2019-05-14T08:20:10.806Z,32.82
2019-05-14T08:22:42.678Z,33.45
2019-05-14T08:25:14.838Z,34.38
2019-05-14T08:27:48.042Z,33.19
2019-05-14T08:30:19.793Z,31.59
2019-05-14T08:32:50.618Z,30.98
2019-05-14T08:35:21.490Z,30.32
2019-05-14T08:38:04.659Z,30.30
2019-05-14T08:40:24.943Z,30.78
2019-05-14T08:42:55.607Z,29.29
2019-05-14T08:45:28.243Z,29.04
2019-05-14T08:47:59.031Z,30.58
2019-05-14T08:50:30.029Z,28.06
2019-05-14T08:53:00.811Z,29.12
2019-05-14T08:55:31.599Z,30.89
2019-05-14T08:58:02.470Z,30.35
2019-05-14T09:00:33.298Z,28.74
2019-05-14T09:03:04.394Z,28.73
2019-05-14T09:05:35.351Z,26.99
2019-05-14T09:08:08.643Z,27.61
2019-05-14T09:10:40.290Z,27.45
2019-05-14T09:13:11.063Z,27.24
2019-05-14T09:15:41.904Z,28.58
2019-05-14T09:18:12.673Z,29.08
2019-05-14T09:20:43.370Z,27.41
2019-05-14T09:23:14.155Z,27.98
2019-05-14T09:25:48.242Z,27.74
2019-05-14T09:28:18.846Z,28.78
2019-05-14T09:30:49.793Z,28.42
2019-05-14T09:33:24.302Z,28.77
2019-05-14T09:36:09.508Z,29.07
2019-05-14T09:38:25.441Z,29.21
2019-05-14T09:41:08.403Z,30.03
2019-05-14T09:43:28.819Z,29.25
2019-05-14T09:45:59.756Z,28.21
2019-05-14T09:48:30.427Z,27.43
2019-05-14T09:51:01.186Z,27.91
2019-05-14T09:53:31.993Z,28.48
2019-05-14T09:56:02.797Z,28.25
2019-05-14T09:58:33.690Z,27.25
2019-05-14T10:01:04.430Z,29.16
2019-05-14T10:03:35.283Z,28.52
2019-05-14T10:06:09.440Z,27.43
2019-05-14T10:08:39.519Z,29.13
2019-05-14T10:11:10.339Z,28.61
2019-05-14T10:13:41.305Z,28.19
2019-05-14T10:16:12.306Z,27.99
2019-05-14T10:18:43.046Z,27.39
2019-05-14T10:21:13.883Z,26.93
2019-05-14T10:23:44.859Z,27.30
2019-05-14T10:26:18.335Z,27.13
2019-05-14T10:28:48.615Z,27.48
2019-05-14T10:31:19.483Z,27.37
2019-05-14T10:33:50.223Z,26.60
2019-05-14T10:36:21.194Z,26.54
2019-05-14T10:38:51.888Z,26.96
2019-05-14T10:41:22.796Z,26.45
2019-05-14T10:43:53.554Z,26.90
2019-05-14T10:46:24.321Z,27.87
2019-05-14T10:48:55.204Z,26.74
2019-05-14T10:51:28.192Z,27.46
2019-05-14T10:53:59.352Z,27.83
2019-05-14T10:56:30.175Z,25.93
2019-05-14T10:59:00.735Z,26.35
2019-05-14T11:01:31.580Z,26.62
2019-05-14T11:04:02.503Z,27.84
2019-05-14T11:06:33.366Z,26.34
2019-05-14T11:09:05.979Z,28.03
2019-05-14T11:11:38.206Z,25.67
2019-05-14T11:14:09.163Z,25.53
2019-05-14T11:16:41.845Z,27.75
2019-05-14T11:19:12.577Z,26.70
2019-05-14T11:21:43.475Z,26.55
2019-05-14T11:24:14.313Z,26.31
2019-05-14T11:26:45.090Z,26.29
2019-05-14T11:29:18.374Z,26.06
2019-05-14T11:31:48.643Z,24.99
2019-05-14T11:34:19.723Z,24.76
2019-05-14T11:36:50.630Z,26.33
2019-05-14T11:39:21.482Z,26.56
2019-05-14T11:41:52.330Z,25.74
2019-05-14T11:44:23.386Z,25.53
2019-05-14T11:46:57.838Z,26.66
2019-05-14T11:49:26.679Z,26.18
2019-05-14T11:52:06.954Z,26.44
2019-05-14T11:54:30.031Z,26.19
2019-05-14T11:57:00.861Z,24.94
2019-05-14T11:59:31.570Z,27.67
2019-05-14T12:02:02.358Z,26.77
2019-05-14T12:04:33.121Z,25.16
2019-05-14T12:07:04.001Z,23.19
2019-05-14T12:09:34.869Z,24.54
2019-05-14T12:12:05.653Z,25.10
2019-05-14T12:14:38.011Z,24.39
2019-05-14T12:17:09.616Z,24.29
2019-05-14T12:19:43.558Z,24.04
2019-05-14T12:22:13.147Z,24.63
2019-05-14T12:24:43.950Z,26.76
2019-05-14T12:27:14.742Z,24.77
2019-05-14T12:29:45.499Z,26.92
2019-05-14T12:32:18.706Z,24.73
2019-05-14T12:34:49.092Z,24.96
2019-05-14T12:37:19.972Z,24.16
2019-05-14T12:39:50.665Z,24.88
2019-05-14T12:42:21.439Z,27.09
2019-05-14T12:44:52.399Z,24.83
2019-05-14T12:47:23.422Z,24.66
2019-05-14T12:49:54.089Z,23.97
2019-05-14T12:52:26.155Z,26.40
2019-05-14T12:54:59.697Z,24.50
2019-05-14T12:57:30.129Z,25.28
2019-05-14T13:00:01.872Z,24.18
2019-05-14T13:02:32.756Z,24.92
2019-05-14T13:05:03.584Z,24.31
2019-05-14T13:07:34.401Z,25.20
2019-05-14T13:10:05.913Z,23.52
2019-05-14T13:12:38.951Z,24.79
2019-05-14T13:15:09.433Z,26.25
2019-05-14T13:17:40.040Z,25.36
2019-05-14T13:20:13.653Z,24.75
2019-05-14T13:22:46.290Z,23.57
2019-05-14T13:25:18.784Z,23.31
2019-05-14T13:27:48.716Z,25.67
2019-05-14T13:30:19.678Z,25.27
2019-05-14T13:32:51.406Z,25.99
2019-05-14T13:35:22.078Z,24.10
2019-05-14T13:37:52.877Z,24.85
2019-05-14T13:40:23.808Z,25.53
2019-05-14T13:42:54.637Z,25.25
2019-05-14T13:45:25.519Z,24.59
2019-05-14T13:47:58.903Z,24.48
2019-05-14T13:50:29.515Z,25.07
2019-05-14T13:53:06.803Z,24.33
2019-05-14T13:55:33.939Z,24.46
2019-05-14T13:58:04.870Z,24.01
2019-05-14T14:00:35.556Z,23.75
2019-05-14T14:03:09.338Z,22.30
2019-05-14T14:05:39.515Z,22.83
2019-05-14T14:08:10.299Z,24.61
2019-05-14T14:10:46.012Z,24.21
2019-05-14T14:13:13.542Z,25.01
2019-05-14T14:15:44.335Z,25.41
2019-05-14T14:18:15.101Z,24.93
2019-05-14T14:20:48.808Z,25.47
2019-05-14T14:23:25.660Z,24.34
2019-05-14T14:25:54.778Z,25.43
2019-05-14T14:28:23.632Z,26.55
2019-05-14T14:30:54.386Z,24.93
2019-05-14T14:33:25.138Z,23.49
2019-05-14T14:35:58.413Z,23.60
2019-05-14T14:38:29.362Z,23.87
2019-05-14T14:41:01.295Z,23.20
2019-05-14T14:43:32.162Z,24.77
2019-05-14T14:46:06.578Z,24.17
2019-05-14T14:48:35.635Z,22.95
2019-05-14T14:51:08.475Z,22.53
2019-05-14T14:53:52.492Z,23.88
2019-05-14T14:56:11.726Z,23.30
2019-05-14T14:58:42.651Z,24.33
2019-05-14T15:01:13.441Z,23.92
2019-05-14T15:03:44.239Z,24.35
2019-05-14T15:06:15.195Z,25.54
2019-05-14T15:08:46.083Z,26.53
2019-05-14T15:11:16.961Z,27.41
2019-05-14T15:13:48.399Z,25.86
2019-05-14T15:16:20.170Z,24.47
2019-05-14T15:18:52.167Z,26.33
2019-05-14T15:21:23.031Z,23.58
2019-05-14T15:24:05.994Z,24.07
2019-05-14T15:26:28.862Z,22.53
2019-05-14T15:28:58.960Z,22.58
2019-05-14T15:31:30.658Z,22.16
2019-05-14T15:34:01.480Z,24.96
2019-05-14T15:36:32.528Z,22.77
2019-05-14T15:39:05.026Z,20.62
2019-05-14T15:41:35.762Z,23.87
2019-05-14T15:44:09.093Z,23.57
2019-05-14T15:46:41.853Z,20.62
2019-05-14T15:49:11.828Z,22.12
2019-05-14T15:51:42.678Z,23.35
2019-05-14T15:54:34.895Z,24.29
2019-05-14T15:56:46.003Z,25.43
2019-05-14T15:59:19.116Z,26.78
2019-05-14T16:01:49.250Z,24.44
2019-05-14T16:04:20.842Z,22.27
2019-05-14T16:06:51.881Z,23.39
2019-05-14T16:09:22.929Z,23.31
2019-05-14T16:11:54.675Z,21.94
2019-05-14T16:14:25.543Z,21.98
2019-05-14T16:16:56.310Z,22.37
2019-05-14T16:19:28.500Z,22.12
2019-05-14T16:21:59.315Z,21.66
2019-05-14T16:24:30.179Z,23.74
2019-05-14T16:27:00.979Z,25.68
2019-05-14T16:29:41.785Z,24.53
2019-05-14T16:32:04.460Z,26.20
2019-05-14T16:34:35.489Z,25.30
2019-05-14T16:37:10.947Z,23.65
2019-05-14T16:39:39.219Z,23.24
2019-05-14T16:42:10.043Z,23.40
2019-05-14T16:44:40.945Z,23.31
2019-05-14T16:47:11.458Z,23.15
2019-05-14T16:49:42.249Z,22.33
2019-05-14T16:52:13.061Z,22.32
2019-05-14T16:54:43.906Z,23.09
2019-05-14T16:57:14.612Z,22.31
2019-05-14T16:59:45.197Z,22.61
2019-05-14T17:02:15.726Z,22.33
2019-05-14T17:04:48.275Z,21.74
2019-05-14T17:07:19.017Z,22.28
2019-05-14T17:09:49.852Z,21.23
2019-05-14T17:12:22.902Z,21.60
2019-05-14T17:14:52.556Z,22.16
2019-05-14T17:17:23.120Z,20.46
2019-05-14T17:19:53.853Z,21.48
2019-05-14T17:22:29.607Z,22.86
2019-05-14T17:24:58.652Z,23.39
2019-05-14T17:27:29.202Z,24.60
2019-05-14T17:29:59.922Z,25.15
2019-05-14T17:32:30.726Z,24.97
2019-05-14T17:35:01.814Z,25.02
2019-05-14T17:37:32.727Z,25.99
2019-05-14T17:40:03.616Z,25.37
2019-05-14T17:42:35.500Z,25.27
2019-05-14T17:45:08.255Z,27.55
2019-05-14T17:47:39.402Z,26.79
2019-05-14T17:50:10.312Z,27.19
2019-05-14T17:52:44.371Z,27.41
2019-05-14T17:55:13.271Z,27.30
2019-05-14T17:57:47.355Z,28.08
2019-05-14T18:00:18.187Z,28.39
2019-05-14T18:02:49.156Z,28.08
2019-05-14T18:05:19.770Z,28.78
2019-05-14T18:07:50.524Z,28.99
2019-05-14T18:10:21.297Z,30.44
2019-05-14T18:12:52.248Z,30.55
2019-05-14T18:15:23.536Z,30.59
2019-05-14T18:17:54.203Z,29.61
2019-05-14T18:20:25.662Z,29.91
2019-05-14T18:22:58.458Z,29.99
2019-05-14T18:25:29.430Z,31.55
2019-05-14T18:28:00.372Z,29.91
2019-05-14T18:30:31.273Z,31.59
2019-05-14T18:33:02.205Z,29.77
2019-05-14T18:35:33.170Z,31.05
2019-05-14T18:38:04.066Z,31.40
2019-05-14T18:40:34.911Z,30.35
2019-05-14T18:43:08.610Z,31.12
2019-05-14T18:45:39.209Z,30.43
2019-05-14T18:48:09.837Z,30.03
2019-05-14T18:50:40.739Z,30.02
2019-05-14T18:53:13.162Z,31.21
2019-05-14T18:55:44.138Z,32.18
2019-05-14T18:58:15.137Z,31.20
2019-05-14T19:00:47.863Z,30.92
2019-05-14T19:03:19.786Z,31.92
2019-05-14T19:05:50.709Z,32.00
2019-05-14T19:08:21.620Z,31.92
2019-05-14T19:10:52.515Z,33.41
2019-05-14T19:13:23.412Z,33.05
2019-05-14T19:15:54.089Z,33.11
2019-05-14T19:18:25.712Z,33.60
2019-05-14T19:20:59.172Z,32.59
2019-05-14T19:23:29.852Z,34.36
2019-05-14T19:26:00.473Z,34.73
2019-05-14T19:28:31.449Z,35.23
2019-05-14T19:31:02.248Z,33.68
2019-05-14T19:33:33.186Z,35.29
2019-05-14T19:36:04.197Z,34.26
2019-05-14T19:38:35.236Z,35.52
2019-05-14T19:41:08.437Z,34.54
2019-05-14T19:43:38.612Z,35.57
2019-05-14T19:46:09.447Z,34.82
2019-05-14T19:48:40.265Z,36.69
2019-05-14T19:51:11.026Z,35.24
2019-05-14T19:53:42.091Z,35.82
2019-05-14T19:56:12.622Z,36.29
2019-05-14T19:58:43.330Z,36.14
2019-05-14T20:01:14.232Z,35.24
2019-05-14T20:03:45.065Z,36.86
2019-05-14T20:06:18.520Z,37.49
2019-05-14T20:08:48.433Z,36.22
2019-05-14T20:11:19.460Z,38.27
2019-05-14T20:13:50.363Z,38.04
2019-05-14T20:16:21.070Z,38.97
2019-05-14T20:18:51.831Z,39.29
2019-05-14T20:21:23.342Z,37.46
2019-05-14T20:23:54.010Z,38.70
2019-05-14T20:26:24.918Z,38.97
2019-05-14T20:28:55.812Z,38.79
2019-05-14T20:31:26.647Z,39.47
2019-05-14T20:33:59.136Z,38.60
2019-05-14T20:36:30.065Z,39.71
2019-05-14T20:39:01.060Z,40.21
2019-05-14T20:41:33.249Z,39.13
2019-05-14T20:44:05.166Z,38.48
2019-05-14T20:46:38.086Z,39.41
2019-05-14T20:49:08.945Z,39.49
2019-05-14T20:51:39.950Z,40.36
2019-05-14T20:54:10.726Z,40.21
2019-05-14T20:56:41.526Z,40.38
2019-05-14T20:59:12.402Z,40.56
2019-05-14T21:01:43.290Z,40.86
2019-05-14T21:04:14.071Z,40.97
2019-05-14T21:06:44.864Z,40.95
2019-05-14T21:09:15.610Z,41.32
2019-05-14T21:11:49.045Z,40.79
2019-05-14T21:14:19.302Z,42.22
2019-05-14T21:16:50.111Z,43.17
2019-05-14T21:19:20.870Z,42.88
2019-05-14T21:21:51.673Z,42.66
2019-05-14T21:24:22.607Z,41.18
2019-05-14T21:26:53.313Z,43.34
2019-05-14T21:29:24.134Z,43.66
2019-05-14T21:31:54.774Z,43.78
2019-05-14T21:34:25.682Z,42.43
2019-05-14T21:36:58.164Z,43.61
2019-05-14T21:39:29.196Z,43.90
2019-05-14T21:42:00.017Z,43.40
2019-05-14T21:44:30.882Z,45.12
2019-05-14T21:47:02.254Z,45.51
2019-05-14T21:49:33.025Z,46.55
2019-05-14T21:52:03.767Z,46.70
2019-05-14T21:54:34.541Z,45.64
2019-05-14T21:57:05.225Z,44.54
2019-05-14T21:59:35.985Z,45.51
2019-05-14T22:02:07.769Z,46.26
2019-05-14T22:04:38.750Z,44.18
2019-05-14T22:07:09.589Z,42.57
2019-05-14T22:09:41.295Z,43.34
2019-05-14T22:12:12.183Z,46.33
2019-05-14T22:14:43.280Z,46.45
2019-05-14T22:17:14.029Z,46.90
2019-05-14T22:19:44.689Z,46.43
2019-05-14T22:22:15.344Z,48.07
2019-05-14T22:24:48.889Z,47.88
2019-05-14T22:27:20.862Z,46.92
2019-05-14T22:29:51.520Z,48.47
2019-05-14T22:32:22.314Z,49.44
2019-05-14T22:34:53.062Z,50.31
2019-05-14T22:37:23.928Z,50.75
2019-05-14T22:39:54.847Z,50.32
2019-05-14T22:42:28.134Z,51.32
2019-05-14T22:44:58.499Z,51.46
2019-05-14T22:47:29.262Z,51.67
2019-05-14T22:50:00.012Z,51.39
2019-05-14T22:52:31.341Z,51.42
2019-05-14T22:55:02.129Z,51.69
2019-05-14T22:57:34.663Z,50.50
2019-05-14T23:00:06.156Z,51.19
2019-05-14T23:02:38.676Z,51.81
2019-05-14T23:05:09.640Z,51.54
2019-05-14T23:07:40.604Z,52.22
2019-05-14T23:10:11.441Z,51.56
2019-05-14T23:12:42.204Z,51.54
2019-05-14T23:15:14.432Z,52.68
2019-05-14T23:17:45.223Z,50.81
2019-05-14T23:20:16.292Z,52.04
2019-05-14T23:22:49.159Z,53.01
2019-05-14T23:25:19.840Z,52.77
2019-05-14T23:27:50.372Z,53.01
2019-05-14T23:30:31.103Z,53.14
2019-05-14T23:33:02.038Z,54.35
2019-05-14T23:35:33.115Z,54.16
2019-05-14T23:38:04.119Z,53.55
2019-05-14T23:40:34.926Z,53.13
2019-05-14T23:43:05.665Z,53.83
2019-05-14T23:45:38.113Z,54.65
2019-05-14T23:48:09.616Z,55.28
2019-05-14T23:50:41.511Z,56.09
2019-05-14T23:53:12.316Z,56.74
2019-05-14T23:55:43.033Z,56.56
2019-05-14T23:58:13.924Z,56.09
